WetterOnline ( https://www.wetteronline.de )

Wetter aktuell Görlitz

Aktuelles Wetter: Görlitz (240m)

6-stündlich | Neueste Meldungen
Ortszeit Temperatur Wetter
Mi, 24.04. 20:00 17.8° C wolkenlos
Mi, 24.04. 14:00 18.0° C wolkenlos
Mi, 24.04. 8:00 12.2° C bewölkt
Mi, 24.04. 2:00 11.4° C bedeckt
Di, 23.04. 20:00 13.9° C bedeckt
Di, 23.04. 14:00 15.1° C bedeckt
Di, 23.04. 8:00 8.6° C wolkenlos
Di, 23.04. 2:00 10.4° C wolkenlos
Ortszeit Temperatur Wetter
Mi, 24.04. 23:30 15.0° C leicht bewölkt
Mi, 24.04. 23:20 15.0° C leicht bewölkt
Mi, 24.04. 23:10 15.0° C wolkig
Mi, 24.04. 23:00 15.0° C wolkig
Mi, 24.04. 22:50 15.0° C wolkig
Mi, 24.04. 22:40 15.0° C wolkig
Mi, 24.04. 22:30 16.3° C leicht bewölkt
Mi, 24.04. 22:00 17.0° C wolkig
Mi, 24.04. 21:30 17.8° C leicht bewölkt
Mi, 24.04. 21:00 17.6° C wolkig
Mi, 24.04. 20:30 17.6° C wolkig
Ortszeit Relative Feuchte Sichtweite
Mi, 24.04. 20:00 63% 19 km
Mi, 24.04. 14:00 59% 8 km
Mi, 24.04. 8:00 74% 12 km
Mi, 24.04. 2:00 76% 13 km
Di, 23.04. 20:00 57% 35 km
Di, 23.04. 14:00 57% 20 km
Di, 23.04. 8:00 61% 24 km
Di, 23.04. 2:00 65% 30 km
Ortszeit Relative Feuchte Sichtweite
Mi, 24.04. 23:30 76% 19 km
Mi, 24.04. 23:20 76% -
Mi, 24.04. 23:10 76% -
Mi, 24.04. 23:00 76% 19 km
Mi, 24.04. 22:50 76% -
Mi, 24.04. 22:40 76% -
Mi, 24.04. 22:30 70% 21 km
Mi, 24.04. 22:00 68% 20 km
Mi, 24.04. 21:30 65% 22 km
Mi, 24.04. 21:00 65% 20 km
Mi, 24.04. 20:30 63% -
Ortszeit Niederschlagsmenge Niederschlagsart
Mi, 24.04. 20:00 0.0 l/m2 in 12 Std. -
Mi, 24.04. 14:00 0.0 l/m2 in 6 Std. -
Mi, 24.04. 8:00 0.0 l/m2 in 12 Std. -
Mi, 24.04. 2:00 0.0 l/m2 in 6 Std. -
Di, 23.04. 20:00 0.1 l/m2 in 12 Std. -
Di, 23.04. 14:00 0.1 l/m2 in 6 Std. Regen
Di, 23.04. 8:00 0.0 l/m2 in 12 Std. -
Di, 23.04. 2:00 0.0 l/m2 in 6 Std. -
Ortszeit Niederschlagsmenge Niederschlagsart
Mi, 24.04. 23:30 0.0 l/m2 in 1 Std. -
Mi, 24.04. 23:20 keine Meldung -
Mi, 24.04. 23:10 keine Meldung -
Mi, 24.04. 23:00 0.0 l/m2 in 1 Std. -
Mi, 24.04. 22:50 keine Meldung -
Mi, 24.04. 22:40 keine Meldung -
Mi, 24.04. 22:30 0.0 l/m2 in 1 Std. -
Mi, 24.04. 22:00 0.0 l/m2 in 1 Std. -
Mi, 24.04. 21:30 0.0 l/m2 in 1 Std. -
Mi, 24.04. 21:00 0.0 l/m2 in 1 Std. -
Mi, 24.04. 20:30 0.0 l/m2 in 1 Std. -
Ortszeit Stärke Spitze Richtung
km/h Bft. km/h Grad Sektor
Mi, 24.04. 20:00 14 3 32 150° SO
Mi, 24.04. 14:00 22 4 47 200° S
Mi, 24.04. 8:00 24 4 41 180° S
Mi, 24.04. 2:00 14 3 54 140° SO
Di, 23.04. 20:00 25 4 54 130° SO
Di, 23.04. 14:00 20 4 48 90° O
Di, 23.04. 8:00 22 4 36 90° O
Di, 23.04. 2:00 22 4 36 90° O
Ortszeit Stärke Spitze Richtung
km/h Bft. km/h Grad Sektor
Mi, 24.04. 23:30 13 3 17 140° SO
Mi, 24.04. 23:20 13 3 - 140° SO
Mi, 24.04. 23:10 11 2 - 150° SO
Mi, 24.04. 23:00 13 3 20 150° SO
Mi, 24.04. 22:50 13 3 - 150° SO
Mi, 24.04. 22:40 11 2 - 160° S
Mi, 24.04. 22:30 14 3 22 130° SO
Mi, 24.04. 22:00 14 3 32 140° SO
Mi, 24.04. 21:30 22 4 32 140° SO
Mi, 24.04. 21:00 18 3 32 140° SO
Mi, 24.04. 20:30 14 3 25 130° SO
Ortszeit Untergrenze Bedeckung Gattung
total tief tief mittel hoch
Mi, 24.04. 20:00 9000 m 0/8 0/8 - - -
Mi, 24.04. 14:00 - 0/8 0/8 - - -
Mi, 24.04. 8:00 4500 m 7/8 6/8 - - -
Mi, 24.04. 2:00 660 m 8/8 8/8 - - -
Di, 23.04. 20:00 1410 m 8/8 8/8 - - -
Di, 23.04. 14:00 1800 m 8/8 8/8 - - -
Di, 23.04. 8:00 - 0/8 0/8 - - -
Di, 23.04. 2:00 - 0/8 0/8 - - -
Ortszeit Bedeckungsgrad in Achtel und Wolkenuntergrenze
Mi, 24.04. 23:30 1(8100m) 5(9000m)
Mi, 24.04. 23:20 1(8100m) 2(8700m) 5(9000m)
Mi, 24.04. 23:10 1(8100m) 4(8700m) 8(9000m)
Mi, 24.04. 23:00 3(8700m) 8(9000m) 8(9000m)
Mi, 24.04. 22:50 3(8700m) 8(9000m)
Mi, 24.04. 22:40 7(9000m) 8(10500m)
Mi, 24.04. 22:30 4(9000m) 5(10500m)
Mi, 24.04. 22:00 1(9000m) 7(9000m)
Mi, 24.04. 21:30 3(9000m) 5(10500m)
Mi, 24.04. 21:00 8(9000m) 8(10500m)
Mi, 24.04. 20:30 1(9000m) 7(9000m)
Ortszeit Luftdruck NN (hPa) Tendenz (hPa in 3 Std.)
Mi, 24.04. 20:00 1008 - 0,4
Mi, 24.04. 14:00 1009 + 0,6
Mi, 24.04. 8:00 1008 + 0,4
Mi, 24.04. 2:00 1009 - 0,8
Di, 23.04. 20:00 1009 + 0,3
Di, 23.04. 14:00 1009 - 0,7
Di, 23.04. 8:00 1012 - 0,7
Di, 23.04. 2:00 1014 - 1,2
Ortszeit Luftdruck NN (hPa) Tendenz (hPa in 3 Std.)
Mi, 24.04. 23:30 1008 - 0,3
Mi, 24.04. 23:20 1008 keine Meldung
Mi, 24.04. 23:10 1008 keine Meldung
Mi, 24.04. 23:00 1008 0,0
Mi, 24.04. 22:50 1008 keine Meldung
Mi, 24.04. 22:40 1008 keine Meldung
Mi, 24.04. 22:30 1008 0,0
Mi, 24.04. 22:00 1008 0,0
Mi, 24.04. 21:30 1008 - 0,2
Mi, 24.04. 21:00 1008 - 0,1
Mi, 24.04. 20:30 1008 0,0
Ortszeit Schneehöhe (cm)
Mi, 24.04. 20:00 0
Mi, 24.04. 14:00 0
Mi, 24.04. 8:00 0
Mi, 24.04. 2:00 0
Di, 23.04. 20:00 0
Di, 23.04. 14:00 0
Di, 23.04. 8:00 0
Di, 23.04. 2:00 0
Ortszeit Schneehöhe (cm)
Mi, 24.04. 23:30 0
Mi, 24.04. 23:20 0
Mi, 24.04. 23:10 0
Mi, 24.04. 23:00 0
Mi, 24.04. 22:50 0
Mi, 24.04. 22:40 0
Mi, 24.04. 22:30 0
Mi, 24.04. 22:00 0
Mi, 24.04. 21:30 0
Mi, 24.04. 21:00 0
Mi, 24.04. 20:30 0
Link zu dieser Seite / Seite empfehlen

Das Wetter in ...